Time;durP1;ratioP1;P1;durP2;ratioP2;P2;SDS_P1;SDS_P2;PMS_P1;PMS_P2;Temp;Humidity;BMP_temperature;BMP_pressure;BME280_temperature;BME280_humidity;BME280_pressure;Samples;Min_cycle;Max_cycle;Signal;HPM_P1;HPM_P2
2022/10/27 00:00:10;;;;;;;403.37;291.50;;;;;;;15.82;66.08;100470.81;309165;31;2402;-79
2022/10/27 00:00:20;;;;;;;400.30;282.95;;;;;;;15.84;65.88;100463.69;308180;32;2706;-79
2022/10/27 00:00:32;;;;;;;404.85;290.17;;;;;;;15.85;65.99;100462.75;306985;32;3034;-79
2022/10/27 00:00:43;;;;;;;406.45;296.42;;;;;;;15.86;65.93;100467.09;303686;32;937;-79
2022/10/27 00:00:53;;;;;;;408.73;302.17;;;;;;;15.88;65.57;100467.88;302903;32;3950;-79
2022/10/27 00:01:04;;;;;;;406.50;304.07;;;;;;;15.89;65.90;100464.31;298025;32;4665;-79
2022/10/27 00:01:14;;;;;;;403.85;293.25;;;;;;;15.90;65.68;100471.31;295210;33;1263;-79
2022/10/27 00:01:24;;;;;;;400.70;284.83;;;;;;;15.90;65.92;100468.66;297208;32;4963;-79
2022/10/27 00:01:35;;;;;;;402.67;280.92;;;;;;;15.92;65.57;100477.38;297176;33;4712;-79
2022/10/27 00:01:45;;;;;;;406.47;290.23;;;;;;;15.92;65.65;100467.66;296244;33;1342;-78
2022/10/27 00:01:55;;;;;;;410.50;300.05;;;;;;;15.92;65.58;100466.81;301532;32;4566;-78
2022/10/27 00:02:06;;;;;;;409.53;304.27;;;;;;;15.90;65.36;100469.53;300322;32;3891;-78
2022/10/27 00:02:16;;;;;;;408.92;306.30;;;;;;;15.93;65.85;100468.53;296369;33;2829;-79
2022/10/27 00:02:27;;;;;;;407.83;302.03;;;;;;;15.93;65.83;100477.28;294268;33;1901;-78
2022/10/27 00:02:37;;;;;;;406.13;290.67;;;;;;;15.92;65.39;100466.81;294002;33;3075;-78
2022/10/27 00:02:48;;;;;;;402.35;281.35;;;;;;;15.92;65.43;100470.31;293826;33;4349;-78
2022/10/27 00:02:58;;;;;;;402.60;285.03;;;;;;;15.94;65.63;100476.38;295309;33;961;-78
2022/10/27 00:03:09;;;;;;;405.50;299.60;;;;;;;15.93;65.55;100465.88;294088;33;6102;-78
2022/10/27 00:03:20;;;;;;;408.48;307.40;;;;;;;15.92;65.65;100466.81;292922;33;6429;-78
2022/10/27 00:03:31;;;;;;;404.95;299.70;;;;;;;15.88;65.68;100462.59;292396;33;1058;-78
2022/10/27 00:03:41;;;;;;;402.77;288.90;;;;;;;15.87;65.94;100469.69;289773;34;900;-78
2022/10/27 00:03:51;;;;;;;403.57;283.20;;;;;;;15.87;66.05;100471.47;286505;34;6770;-78
2022/10/27 00:04:02;;;;;;;404.37;281.67;;;;;;;15.86;66.21;100472.38;282472;34;6019;-78
2022/10/27 00:04:12;;;;;;;405.90;287.70;;;;;;;15.83;66.20;100472.53;282382;35;894;-78
2022/10/27 00:04:23;;;;;;;402.83;281.83;;;;;;;15.81;65.93;100469.13;280104;34;5604;-78
2022/10/27 00:04:33;;;;;;;401.73;277.38;;;;;;;15.81;65.93;100466.47;278201;34;4296;-79
2022/10/27 00:04:43;;;;;;;399.27;274.43;;;;;;;15.79;65.84;100463.91;280931;35;1017;-79
2022/10/27 00:04:54;;;;;;;401.55;282.20;;;;;;;15.77;66.05;100467.56;275618;35;5314;-78
2022/10/27 00:05:04;;;;;;;403.27;288.40;;;;;;;15.78;65.72;100469.25;273834;35;6526;-78
2022/10/27 00:05:15;;;;;;;403.55;287.20;;;;;;;15.77;65.83;100472.84;275763;35;1207;-79
2022/10/27 00:05:25;;;;;;;405.47;291.93;;;;;;;15.78;65.81;100466.63;274284;35;8865;-79
2022/10/27 00:05:36;;;;;;;408.27;303.45;;;;;;;15.79;65.46;100465.69;275976;35;8631;-78
2022/10/27 00:05:46;;;;;;;407.00;301.13;;;;;;;15.81;66.30;100474.41;275237;35;10024;-79
2022/10/27 00:08:17;;;;;;;389.69;265.36;;;;;;;15.80;66.41;100467.41;2504175;27;20814;-78
2022/10/27 00:08:27;;;;;;;397.17;283.55;;;;;;;15.81;66.45;100471.75;353338;28;887;-78
2022/10/27 00:08:38;;;;;;;397.42;282.52;;;;;;;15.80;66.69;100467.41;350465;28;1382;-78
2022/10/27 00:08:49;;;;;;;402.87;289.23;;;;;;;15.79;67.01;100471.84;349097;28;816;-78
2022/10/27 00:09:00;;;;;;;400.70;284.55;;;;;;;15.77;66.73;100468.41;349139;28;1121;-78
2022/10/27 00:09:10;;;;;;;399.73;281.03;;;;;;;15.78;66.36;100471.91;349868;28;1420;-78
2022/10/27 00:09:20;;;;;;;398.13;275.13;;;;;;;15.80;66.81;100472.69;348966;28;1209;-78
2022/10/27 00:09:31;;;;;;;397.42;272.33;;;;;;;15.81;66.54;100464.69;347848;28;1194;-78
2022/10/27 00:09:41;;;;;;;396.50;274.70;;;;;;;15.77;66.82;100467.56;349198;28;911;-78
2022/10/27 00:09:52;;;;;;;397.15;281.15;;;;;;;15.76;66.55;100471.13;347497;28;1471;-79
2022/10/27 00:10:04;;;;;;;400.67;291.37;;;;;;;15.77;66.79;100472.84;348221;28;1313;-79
2022/10/27 00:10:14;;;;;;;402.83;295.52;;;;;;;15.75;66.57;100469.41;348915;28;1583;-79
2022/10/27 00:10:24;;;;;;;401.58;289.05;;;;;;;15.76;66.81;100471.13;349055;28;876;-79
2022/10/27 00:10:35;;;;;;;399.43;280.33;;;;;;;15.77;66.45;100470.19;344845;28;1332;-79
2022/10/27 00:10:55;;;;;;;398.88;276.38;;;;;;;15.78;66.46;100463.97;346659;28;1399;-79
2022/10/27 00:11:06;;;;;;;399.02;281.38;;;;;;;15.78;66.64;100472.75;350532;28;1310;-78
2022/10/27 00:11:16;;;;;;;398.93;285.47;;;;;;;15.78;66.05;100471.91;347707;28;1320;-78
2022/10/27 00:11:26;;;;;;;400.15;290.48;;;;;;;15.79;66.52;100466.56;348998;28;1219;-78
2022/10/27 00:11:37;;;;;;;400.43;289.67;;;;;;;15.81;66.06;100474.41;347600;28;1248;-78
2022/10/27 00:11:47;;;;;;;399.33;285.23;;;;;;;15.80;66.03;100468.25;346319;28;1317;-78
2022/10/27 00:11:57;;;;;;;401.70;287.90;;;;;;;15.82;65.64;100470.81;346225;28;1216;-78
2022/10/27 00:12:08;;;;;;;402.70;293.50;;;;;;;15.81;65.64;100474.41;346327;28;948;-78
2022/10/27 00:12:18;;;;;;;403.93;295.87;;;;;;;15.81;65.77;100471.75;347053;28;1151;-78
2022/10/27 00:12:30;;;;;;;402.67;293.73;;;;;;;15.81;65.40;100469.13;342175;28;1263;-78
2022/10/27 00:12:40;;;;;;;402.95;288.73;;;;;;;15.80;65.33;100468.25;345158;28;1498;-78
2022/10/27 00:12:50;;;;;;;402.63;285.17;;;;;;;15.80;65.55;100465.63;348580;28;985;-78
2022/10/27 00:13:01;;;;;;;401.48;282.83;;;;;;;15.79;65.45;100465.69;346233;28;1367;-78
2022/10/27 00:13:12;;;;;;;402.43;284.80;;;;;;;15.76;65.26;100471.13;344943;28;1191;-78
2022/10/27 00:13:22;;;;;;;403.65;288.55;;;;;;;15.77;65.62;100464.91;346298;28;1293;-78
2022/10/27 00:13:33;;;;;;;403.33;291.95;;;;;;;15.79;65.44;100473.63;347555;28;1255;-78
2022/10/27 00:13:44;;;;;;;403.73;297.13;;;;;;;15.78;65.49;100474.53;344986;28;1230;-78
2022/10/27 00:13:54;;;;;;;402.53;291.57;;;;;;;15.78;65.71;100469.25;346269;28;1340;-78
2022/10/27 00:14:04;;;;;;;400.77;283.67;;;;;;;15.77;65.22;100478.13;344947;28;2590;-78
2022/10/27 00:14:15;;;;;;;400.30;281.57;;;;;;;15.76;65.35;100471.97;342826;28;2958;-78
2022/10/27 00:14:25;;;;;;;405.67;290.73;;;;;;;15.76;65.33;100464.06;342411;28;1507;-79
2022/10/27 00:14:36;;;;;;;413.27;305.60;;;;;;;15.77;65.14;100472.84;343145;28;1356;-78
2022/10/27 00:14:46;;;;;;;412.07;299.60;;;;;;;15.78;65.04;100471.91;343412;28;3257;-78
2022/10/27 00:14:56;;;;;;;411.65;294.05;;;;;;;15.78;65.00;100463.97;339792;29;1226;-78
2022/10/27 00:15:08;;;;;;;409.07;290.60;;;;;;;15.79;65.26;100470.97;338261;29;1230;-79
2022/10/27 00:15:18;;;;;;;409.88;297.98;;;;;;;15.79;65.15;100477.09;339790;29;1442;-79
2022/10/27 00:15:28;;;;;;;406.03;297.80;;;;;;;15.77;65.07;100472.84;337015;29;1234;-79
2022/10/27 00:15:39;;;;;;;407.25;289.20;;;;;;;15.75;65.35;100464.97;338246;29;1336;-79
2022/10/27 00:16:09;;;;;;;404.47;285.80;;;;;;;15.77;64.87;100472.84;340775;29;1320;-79
2022/10/27 00:16:19;;;;;;;416.23;294.90;;;;;;;15.78;64.82;100469.25;335171;29;1120;-78
2022/10/27 00:16:30;;;;;;;413.10;288.65;;;;;;;15.77;64.85;100467.56;334992;29;1391;-78
2022/10/27 00:16:40;;;;;;;411.13;285.93;;;;;;;15.77;64.58;100472.84;335745;29;925;-78
2022/10/27 00:16:54;;;;;;;410.13;286.97;;;;;;;15.78;64.29;100471.91;335660;29;1719;-78
2022/10/27 00:17:04;;;;;;;412.23;284.80;;;;;;;15.77;63.75;100468.41;335886;29;1915;-78
2022/10/27 00:17:15;;;;;;;409.80;285.23;;;;;;;15.78;64.42;100474.53;334762;29;1006;-78
2022/10/27 00:17:26;;;;;;;410.20;286.93;;;;;;;15.76;63.94;100471.13;335775;29;1459;-78
2022/10/27 00:17:37;;;;;;;414.65;295.70;;;;;;;15.77;64.21;100472.84;338301;29;1324;-79
2022/10/27 00:17:47;;;;;;;417.80;296.67;;;;;;;15.77;63.92;100468.41;336621;29;1506;-80
2022/10/27 00:17:58;;;;;;;417.27;290.20;;;;;;;15.78;64.19;100469.25;338420;29;1257;-80
2022/10/27 00:18:09;;;;;;;420.67;287.57;;;;;;;15.79;63.91;100468.34;329172;29;1597;-80
2022/10/27 00:18:19;;;;;;;418.23;284.42;;;;;;;15.80;63.86;100472.69;330908;29;1689;-80
2022/10/27 00:18:30;;;;;;;421.20;290.80;;;;;;;15.79;64.04;100478.91;330198;29;1819;-80
2022/10/27 00:18:41;;;;;;;421.05;286.17;;;;;;;15.79;63.98;100477.09;327114;30;1410;-79
2022/10/27 00:18:52;;;;;;;424.88;281.05;;;;;;;15.79;64.04;100470.97;330904;29;2070;-78
2022/10/27 00:19:02;;;;;;;422.50;279.05;;;;;;;15.78;63.88;100474.53;330713;29;2265;-78
2022/10/27 00:19:13;;;;;;;420.07;286.43;;;;;;;15.78;63.69;100474.53;328181;30;1207;-78
2022/10/27 00:19:23;;;;;;;423.10;285.27;;;;;;;15.78;64.06;100470.13;328632;30;1680;-78
2022/10/27 00:19:34;;;;;;;421.30;275.00;;;;;;;15.80;63.86;100478.81;327628;30;1252;-78
2022/10/27 00:19:44;;;;;;;422.30;272.73;;;;;;;15.80;63.96;100470.03;327963;29;1573;-79
2022/10/27 00:19:55;;;;;;;419.70;280.23;;;;;;;15.81;63.91;100469.97;327115;30;1273;-79
2022/10/27 00:20:06;;;;;;;420.83;291.00;;;;;;;15.82;63.82;100473.47;325369;30;1676;-79
2022/10/27 00:20:16;;;;;;;421.60;290.63;;;;;;;15.81;64.00;100469.97;323779;30;1964;-79
2022/10/27 00:20:27;;;;;;;417.77;287.67;;;;;;;15.79;63.78;100468.34;324011;30;1208;-79
2022/10/27 00:20:37;;;;;;;421.33;292.60;;;;;;;15.82;63.62;100470.81;326521;30;2360;-79
2022/10/27 00:21:02;;;;;;;417.55;291.85;;;;;;;15.81;63.93;100479.69;323913;30;2542;-79
2022/10/27 00:21:14;;;;;;;415.13;283.10;;;;;;;15.81;64.00;100474.41;321089;30;1520;-79
2022/10/27 00:21:24;;;;;;;412.23;280.23;;;;;;;15.81;63.94;100469.13;318764;31;1413;-79
2022/10/27 00:21:34;;;;;;;412.45;275.10;;;;;;;15.80;63.98;100473.53;319308;30;2272;-79
2022/10/27 00:21:45;;;;;;;416.93;275.80;;;;;;;15.80;63.92;100472.69;317635;30;1819;-78
2022/10/27 00:21:55;;;;;;;416.48;276.20;;;;;;;15.80;63.60;100472.69;319985;30;1177;-80
2022/10/27 00:22:06;;;;;;;415.53;277.83;;;;;;;15.77;63.62;100470.19;320046;30;2061;-80
2022/10/27 00:22:17;;;;;;;411.88;276.10;;;;;;;15.77;63.83;100473.69;319015;30;2292;-80
2022/10/27 00:22:27;;;;;;;409.58;274.85;;;;;;;15.77;63.53;100472.84;318771;31;873;-80
2022/10/27 00:22:37;;;;;;;410.80;276.03;;;;;;;15.77;63.73;100478.13;315987;31;2885;-79
2022/10/27 00:22:48;;;;;;;417.20;283.17;;;;;;;15.75;63.81;100472.06;318342;30;3044;-79
2022/10/27 00:22:58;;;;;;;419.80;284.08;;;;;;;15.75;63.49;100474.69;318812;31;858;-79
2022/10/27 00:23:08;;;;;;;419.67;281.57;;;;;;;15.75;63.72;100474.69;315439;31;1147;-79
2022/10/27 00:23:19;;;;;;;415.35;278.10;;;;;;;15.73;63.82;100471.25;312171;31;4044;-79
2022/10/27 00:23:30;;;;;;;416.63;280.87;;;;;;;15.71;63.62;100473.97;310536;31;2983;-78
2022/10/27 00:23:41;;;;;;;416.05;278.20;;;;;;;15.72;63.76;100470.41;309711;31;1249;-78
2022/10/27 00:23:51;;;;;;;414.75;277.48;;;;;;;15.71;63.70;100470.47;312250;31;2926;-79
2022/10/27 00:24:02;;;;;;;412.40;279.90;;;;;;;15.71;63.58;100470.47;313630;31;2432;-79
2022/10/27 00:24:12;;;;;;;414.03;280.27;;;;;;;15.69;63.65;100474.97;313051;31;1169;-79
2022/10/27 00:24:22;;;;;;;416.80;284.30;;;;;;;15.65;63.73;100471.63;310125;31;2962;-78
2022/10/27 00:24:33;;;;;;;417.07;286.43;;;;;;;15.66;63.79;100477.75;305440;31;2666;-78
2022/10/27 00:24:43;;;;;;;419.40;294.27;;;;;;;15.68;63.68;100471.50;305539;32;4243;-78
2022/10/27 00:24:54;;;;;;;418.70;294.00;;;;;;;15.68;63.67;100473.28;302273;32;1372;-79
2022/10/27 00:25:04;;;;;;;416.33;296.47;;;;;;;15.66;63.69;100472.50;303634;32;4082;-78
2022/10/27 00:25:15;;;;;;;415.55;293.33;;;;;;;15.63;63.74;100468.22;300538;32;4403;-78
2022/10/27 00:25:25;;;;;;;417.90;294.42;;;;;;;15.64;63.58;100473.41;300249;32;1206;-78
2022/10/27 00:25:36;;;;;;;423.20;297.17;;;;;;;15.67;63.96;100476.84;300935;32;3927;-78
2022/10/27 00:25:52;;;;;;;420.20;298.23;;;;;;;15.68;63.26;100470.63;299706;32;3686;-78
2022/10/27 00:26:03;;;;;;;416.33;287.67;;;;;;;15.69;63.30;100474.97;295043;33;2929;-78
2022/10/27 00:26:14;;;;;;;421.13;287.90;;;;;;;15.70;63.36;100476.69;294657;32;3235;-78
2022/10/27 00:26:24;;;;;;;422.27;297.02;;;;;;;15.69;63.66;100475.84;297239;33;863;-78
2022/10/27 00:26:34;;;;;;;424.23;297.40;;;;;;;15.70;63.62;100476.69;293513;33;3957;-78
2022/10/27 00:26:45;;;;;;;420.23;290.42;;;;;;;15.68;63.41;100470.63;292092;33;4910;-78
2022/10/27 00:26:55;;;;;;;418.73;287.80;;;;;;;15.68;63.20;100475.91;292314;33;872;-78
2022/10/27 00:27:07;;;;;;;419.50;289.00;;;;;;;15.69;63.19;100480.25;290398;33;6385;-78
2022/10/27 00:27:17;;;;;;;421.15;293.45;;;;;;;15.67;63.53;100472.41;289216;33;6205;-78
2022/10/27 00:27:28;;;;;;;420.17;293.63;;;;;;;15.69;63.45;100482.91;289298;34;1223;-78
2022/10/27 00:27:38;;;;;;;416.93;290.37;;;;;;;15.68;63.54;100478.53;287396;34;1177;-78
2022/10/27 00:27:49;;;;;;;417.98;287.67;;;;;;;15.66;63.28;100477.75;287083;34;5564;-78
2022/10/27 00:27:59;;;;;;;415.63;284.10;;;;;;;15.66;63.56;100475.13;285471;34;5400;-78
2022/10/27 00:28:10;;;;;;;412.63;280.73;;;;;;;15.66;63.51;100477.75;285685;34;1310;-78
2022/10/27 00:28:20;;;;;;;411.63;283.87;;;;;;;15.66;63.35;100477.75;278934;34;4153;-78
2022/10/27 00:28:31;;;;;;;415.48;291.33;;;;;;;15.67;63.02;100479.47;277650;34;5092;-78
2022/10/27 00:28:41;;;;;;;420.50;297.23;;;;;;;15.68;63.25;100478.53;274902;35;1337;-78
2022/10/27 00:28:52;;;;;;;421.07;296.30;;;;;;;15.69;63.31;100474.97;274946;35;6688;-78
2022/10/27 00:29:02;;;;;;;419.83;298.13;;;;;;;15.71;63.22;100473.13;275048;35;7789;-78
2022/10/27 00:29:13;;;;;;;418.27;289.17;;;;;;;15.71;63.09;100479.25;276771;35;913;-78
2022/10/27 00:31:36;;;;;;;406.49;266.58;;;;;;;15.74;63.25;100484.38;2500993;27;20510;-79
2022/10/27 00:31:47;;;;;;;416.07;298.40;;;;;;;15.74;63.13;100483.53;353404;28;1233;-79
2022/10/27 00:31:57;;;;;;;417.30;296.52;;;;;;;15.73;63.48;100481.81;350462;28;1413;-79
2022/10/27 00:32:07;;;;;;;416.60;296.97;;;;;;;15.71;63.14;100478.41;348997;28;1258;-79
2022/10/27 00:32:18;;;;;;;419.27;300.00;;;;;;;15.70;63.00;100485.47;349037;28;1204;-79
2022/10/27 00:32:28;;;;;;;414.53;289.37;;;;;;;15.70;63.64;100481.97;347923;28;2778;-80
2022/10/27 00:32:39;;;;;;;413.17;277.40;;;;;;;15.69;63.46;100474.97;347013;28;5229;-79
2022/10/27 00:32:49;;;;;;;411.38;272.63;;;;;;;15.70;63.58;100481.97;347563;28;1276;-79
2022/10/27 00:32:59;;;;;;;417.13;288.10;;;;;;;15.69;63.50;100485.53;348060;28;1781;-79
2022/10/27 00:33:10;;;;;;;420.67;298.83;;;;;;;15.70;63.64;100481.97;347556;28;3117;-80
2022/10/27 00:33:20;;;;;;;419.63;300.20;;;;;;;15.70;63.56;100481.97;347542;28;1324;-80
2022/10/27 00:33:31;;;;;;;426.50;300.10;;;;;;;15.71;63.59;100481.03;348435;28;1544;-79
2022/10/27 00:33:41;;;;;;;421.37;285.07;;;;;;;15.70;63.44;100480.19;347806;28;1459;-79
2022/10/27 00:33:52;;;;;;;417.35;281.80;;;;;;;15.69;63.54;100486.41;349121;28;1066;-79
2022/10/27 00:34:02;;;;;;;409.57;277.20;;;;;;;15.72;63.38;100480.13;348268;28;1199;-79
2022/10/27 00:34:12;;;;;;;411.25;282.38;;;;;;;15.73;63.51;100487.97;347725;28;1470;-79
2022/10/27 00:34:23;;;;;;;410.93;279.80;;;;;;;15.73;63.59;100482.69;349483;28;1023;-79
2022/10/27 00:34:33;;;;;;;412.97;279.23;;;;;;;15.73;63.58;100481.81;347760;28;1363;-79
2022/10/27 00:34:44;;;;;;;411.93;281.40;;;;;;;15.74;63.75;100483.53;346258;28;1224;-79
2022/10/27 00:34:54;;;;;;;416.63;285.83;;;;;;;15.73;63.39;100482.69;346342;28;1251;-79
2022/10/27 00:35:05;;;;;;;416.20;285.85;;;;;;;15.73;63.50;100482.69;346128;28;1383;-80
2022/10/27 00:35:15;;;;;;;417.02;283.52;;;;;;;15.74;63.57;100480.91;347556;28;1223;-80
2022/10/27 00:35:25;;;;;;;412.00;284.53;;;;;;;15.73;63.65;100481.81;347497;28;1263;-78
2022/10/27 00:35:36;;;;;;;412.98;288.27;;;;;;;15.73;63.35;100487.09;346355;28;1185;-78
2022/10/27 00:35:46;;;;;;;417.27;283.53;;;;;;;15.71;63.80;100476.63;348868;28;1178;-79
2022/10/27 00:36:05;;;;;;;417.37;283.63;;;;;;;15.69;64.14;100481.13;347693;28;1481;-79
2022/10/27 00:36:20;;;;;;;410.62;284.00;;;;;;;15.67;64.11;100482.97;345371;28;864;-79
2022/10/27 00:36:30;;;;;;;408.98;284.10;;;;;;;15.65;64.08;100482.19;343866;28;1387;-79
2022/10/27 00:36:41;;;;;;;405.15;275.38;;;;;;;15.67;64.24;100482.97;343882;28;1338;-79
2022/10/27 00:36:51;;;;;;;405.20;273.03;;;;;;;15.68;64.39;100481.19;342458;28;1264;-79
2022/10/27 00:37:02;;;;;;;403.25;272.50;;;;;;;15.68;64.38;100483.81;341125;29;1485;-79
2022/10/27 00:37:12;;;;;;;407.77;281.63;;;;;;;15.68;64.32;100489.09;342429;28;1328;-79
2022/10/27 00:37:22;;;;;;;407.08;284.30;;;;;;;15.68;64.44;100473.28;344947;28;904;-79
2022/10/27 00:37:33;;;;;;;409.93;288.20;;;;;;;15.63;64.52;100482.25;349281;28;1316;-79
2022/10/27 00:37:43;;;;;;;410.17;292.77;;;;;;;15.62;64.37;100480.56;347085;28;1283;-79
2022/10/27 00:37:54;;;;;;;409.42;289.92;;;;;;;15.62;64.91;100475.28;346491;28;849;-79
2022/10/27 00:38:04;;;;;;;410.47;289.40;;;;;;;15.63;64.67;100476.13;344833;28;1271;-79
2022/10/27 00:38:14;;;;;;;407.23;288.65;;;;;;;15.65;64.54;100484.81;344651;28;1402;-79
2022/10/27 00:38:25;;;;;;;404.60;279.80;;;;;;;15.63;64.96;100478.75;344991;28;1272;-79
2022/10/27 00:38:35;;;;;;;400.58;276.00;;;;;;;15.66;64.78;100483.03;342441;28;1070;-79
2022/10/27 00:38:46;;;;;;;404.00;277.63;;;;;;;15.64;64.79;100478.69;341035;29;850;-79
2022/10/27 00:38:57;;;;;;;405.95;285.73;;;;;;;15.65;64.55;100479.53;341046;29;1235;-78
2022/10/27 00:39:07;;;;;;;409.20;293.35;;;;;;;15.66;64.34;100477.75;343649;28;1376;-78
2022/10/27 00:39:18;;;;;;;406.67;289.97;;;;;;;15.64;64.73;100478.69;339988;28;1896;-78
2022/10/27 00:39:28;;;;;;;404.90;286.77;;;;;;;15.63;64.71;100474.34;339857;29;1281;-78
2022/10/27 00:39:38;;;;;;;402.93;283.40;;;;;;;15.63;64.42;100481.41;337108;29;1192;-78
2022/10/27 00:39:49;;;;;;;405.35;278.13;;;;;;;15.63;64.39;100479.63;336537;29;1495;-78
2022/10/27 00:39:59;;;;;;;407.63;276.83;;;;;;;15.65;64.44;100479.53;333979;29;1342;-78
2022/10/27 00:40:10;;;;;;;409.08;277.55;;;;;;;15.66;64.39;100475.97;334451;29;1227;-78
2022/10/27 00:40:21;;;;;;;407.67;284.15;;;;;;;15.66;64.55;100477.75;333121;29;1290;-78
2022/10/27 00:40:36;;;;;;;408.67;285.92;;;;;;;15.66;64.44;100478.63;335395;29;1919;-78
2022/10/27 00:40:46;;;;;;;404.17;281.85;;;;;;;15.64;64.31;100478.69;331709;29;1397;-78
2022/10/27 00:40:57;;;;;;;402.77;277.80;;;;;;;15.62;64.76;100472.63;333345;29;1355;-78
2022/10/27 00:41:23;;;;;;;405.37;280.37;;;;;;;15.63;64.46;100482.25;337019;29;1233;-78
2022/10/27 00:41:38;;;;;;;405.25;280.73;;;;;;;15.63;64.31;100474.34;331845;29;1492;-78
2022/10/27 00:41:48;;;;;;;402.83;274.70;;;;;;;15.63;64.50;100470.84;331018;29;2982;-78
2022/10/27 00:41:59;;;;;;;404.07;274.30;;;;;;;15.62;64.31;100480.56;327609;30;3073;-78
2022/10/27 00:42:12;;;;;;;410.17;280.73;;;;;;;15.64;64.40;100476.06;324836;30;897;-78
2022/10/27 00:42:23;;;;;;;415.42;295.60;;;;;;;15.67;64.10;100479.47;325738;30;1322;-78
2022/10/27 00:42:33;;;;;;;414.27;299.45;;;;;;;15.68;64.30;100479.41;332967;29;2242;-78
2022/10/27 00:42:43;;;;;;;409.33;289.77;;;;;;;15.67;64.43;100476.84;329126;29;2225;-78
2022/10/27 00:42:54;;;;;;;411.17;281.93;;;;;;;15.69;64.31;100475.84;328255;30;1159;-78
2022/10/27 00:43:32;;;;;;;414.40;285.65;;;;;;;15.75;64.02;100474.69;327899;30;1312;-78
2022/10/27 00:43:42;;;;;;;409.88;286.73;;;;;;;15.75;63.59;100475.53;317529;30;2005;-78
2022/10/27 00:43:53;;;;;;;410.42;285.23;;;;;;;15.74;63.77;100479.13;318668;31;1230;-78
2022/10/27 00:44:35;;;;;;;411.67;284.60;;;;;;;15.71;63.41;100479.25;313137;31;2426;-78
2022/10/27 00:44:45;;;;;;;406.35;282.02;;;;;;;15.73;63.65;100471.25;312419;31;2691;-79
2022/10/27 00:44:56;;;;;;;406.50;277.70;;;;;;;15.74;63.96;100472.97;310838;31;1855;-79
2022/10/27 00:45:07;;;;;;;404.35;273.67;;;;;;;15.78;63.70;100471.91;310932;31;939;-79
2022/10/27 00:45:18;;;;;;;403.63;276.05;;;;;;;15.78;63.27;100472.75;310492;31;1814;-79
2022/10/27 00:45:28;;;;;;;403.85;284.02;;;;;;;15.74;63.10;100471.19;308083;32;1720;-79
2022/10/27 00:45:38;;;;;;;405.33;287.87;;;;;;;15.73;63.17;100473.91;306521;32;1343;-79
2022/10/27 00:45:49;;;;;;;408.37;287.27;;;;;;;15.72;63.01;100474.84;308647;31;2259;-79
2022/10/27 00:46:09;;;;;;;411.20;287.50;;;;;;;15.69;63.15;100469.69;306707;31;2878;-79
2022/10/27 00:46:43;;;;;;;409.77;286.50;;;;;;;15.68;63.08;100473.28;310990;31;3080;-79
2022/10/27 00:46:54;;;;;;;412.33;285.17;;;;;;;15.69;63.05;100474.97;309312;31;1125;-78
2022/10/27 00:47:26;;;;;;;409.67;287.00;;;;;;;15.69;63.03;100469.69;306856;32;3297;-78
2022/10/27 00:47:37;;;;;;;408.55;284.70;;;;;;;15.69;62.77;100472.34;300252;32;1301;-79
2022/10/27 00:47:47;;;;;;;407.63;281.87;;;;;;;15.68;62.91;100471.50;301030;32;2677;-79
2022/10/27 00:47:58;;;;;;;406.58;284.30;;;;;;;15.67;62.64;100475.06;301900;32;3206;-79
2022/10/27 00:48:08;;;;;;;408.07;286.57;;;;;;;15.66;62.74;100475.13;300330;32;974;-79
2022/10/27 00:48:18;;;;;;;408.67;280.05;;;;;;;15.68;63.18;100478.53;296465;32;3928;-79
2022/10/27 00:48:29;;;;;;;411.23;284.30;;;;;;;15.66;62.61;100473.34;293746;33;4296;-78
2022/10/27 00:48:39;;;;;;;411.88;294.45;;;;;;;15.68;62.60;100470.63;295237;33;1436;-78
2022/10/27 00:48:52;;;;;;;411.67;299.70;;;;;;;15.68;62.65;100478.53;295298;33;5066;-79
2022/10/27 00:49:07;;;;;;;411.23;291.70;;;;;;;15.70;62.62;100481.97;297121;33;4391;-79
2022/10/27 00:49:20;;;;;;;407.63;278.73;;;;;;;15.70;62.47;100476.69;298291;33;4524;-79
2022/10/27 00:49:39;;;;;;;406.38;281.88;;;;;;;15.71;62.22;100481.03;293187;33;3620;-79
2022/10/27 00:50:12;;;;;;;411.38;284.48;;;;;;;15.68;62.43;100474.13;289855;33;2920;-79
2022/10/27 00:50:23;;;;;;;407.23;278.98;;;;;;;15.69;62.52;100481.13;283724;34;1157;-79
2022/10/27 00:50:33;;;;;;;405.65;272.42;;;;;;;15.68;62.14;100476.75;282582;34;6094;-79
2022/10/27 00:50:43;;;;;;;407.80;273.97;;;;;;;15.70;62.39;100477.53;281644;34;6318;-79
2022/10/27 00:50:54;;;;;;;408.02;273.52;;;;;;;15.70;62.16;100476.69;279958;35;1727;-79
2022/10/27 00:51:04;;;;;;;410.43;285.83;;;;;;;15.71;62.08;100478.41;277692;35;7494;-78
2022/10/27 00:51:15;;;;;;;406.83;288.23;;;;;;;15.71;62.30;100478.41;278307;35;5933;-78
2022/10/27 00:51:25;;;;;;;406.15;287.92;;;;;;;15.71;62.12;100484.53;279435;34;6016;-78
2022/10/27 00:51:38;;;;;;;407.50;282.50;;;;;;;15.71;62.24;100483.69;277757;35;3375;-78
2022/10/27 00:51:50;;;;;;;407.20;279.73;;;;;;;15.71;61.96;100478.41;274559;35;4857;-79
2022/10/27 00:52:07;;;;;;;406.65;277.98;;;;;;;15.69;62.08;100480.25;274248;35;4292;-79
2022/10/27 00:53:48;;;;;;;393.96;260.24;;;;;;;15.65;62.36;100490.09;2501378;27;20273;-79
2022/10/27 00:53:59;;;;;;;400.47;266.10;;;;;;;15.64;62.61;100481.34;351403;28;1393;-78
2022/10/27 00:54:09;;;;;;;403.42;275.65;;;;;;;15.67;62.27;100482.13;347422;28;1208;-78
2022/10/27 00:54:20;;;;;;;404.65;276.40;;;;;;;15.67;62.85;100482.13;348915;28;888;-78
2022/10/27 00:54:36;;;;;;;406.37;277.63;;;;;;;15.66;62.75;100480.41;348714;28;1236;-78
2022/10/27 00:54:47;;;;;;;407.08;274.70;;;;;;;15.67;62.36;100487.41;350342;28;1403;-78
2022/10/27 00:55:28;;;;;;;409.83;280.97;;;;;;;15.68;62.52;100487.31;349114;28;1173;-80
2022/10/27 00:55:42;;;;;;;399.27;270.70;;;;;;;15.67;62.97;100482.97;341695;28;1365;-79
2022/10/27 00:55:52;;;;;;;408.08;288.45;;;;;;;15.66;63.13;100480.41;343319;28;1352;-79
2022/10/27 00:56:03;;;;;;;410.20;295.52;;;;;;;15.65;63.29;100484.81;342579;28;1271;-79
2022/10/27 00:56:13;;;;;;;408.10;283.85;;;;;;;15.66;63.36;100486.53;344501;28;1229;-79
2022/10/27 00:56:24;;;;;;;406.10;276.20;;;;;;;15.66;63.59;100483.03;343353;28;1328;-79
2022/10/27 00:56:34;;;;;;;408.58;286.55;;;;;;;15.67;63.29;100484.75;340767;28;1266;-79
2022/10/27 00:56:47;;;;;;;410.37;297.47;;;;;;;15.66;63.59;100488.31;344944;28;1386;-79
2022/10/27 00:56:57;;;;;;;408.95;285.95;;;;;;;15.66;63.66;100488.31;347588;28;1364;-80
2022/10/27 00:57:08;;;;;;;406.80;274.90;;;;;;;15.66;63.52;100485.69;345915;28;1346;-80
2022/10/27 00:57:19;;;;;;;411.00;275.48;;;;;;;15.67;63.50;100487.41;343613;28;1251;-80
2022/10/27 00:57:31;;;;;;;409.10;277.37;;;;;;;15.66;64.04;100486.53;346916;28;948;-80
2022/10/27 00:57:41;;;;;;;409.98;276.90;;;;;;;15.66;63.75;100485.69;348572;28;1341;-79
2022/10/27 00:57:54;;;;;;;404.00;274.95;;;;;;;15.66;63.58;100483.03;347325;28;1337;-79
2022/10/27 00:58:09;;;;;;;404.42;270.70;;;;;;;15.64;63.20;100486.59;340688;29;1286;-79
2022/10/27 00:58:20;;;;;;;402.55;270.48;;;;;;;15.63;63.56;100481.41;339506;29;1541;-78
2022/10/27 00:58:30;;;;;;;400.83;276.63;;;;;;;15.61;63.54;100489.41;341526;28;1261;-78
2022/10/27 00:58:40;;;;;;;403.73;282.20;;;;;;;15.59;63.38;100483.38;340904;28;1370;-79
2022/10/27 00:58:51;;;;;;;405.40;283.83;;;;;;;15.61;63.57;100486.75;343346;28;1261;-79
2022/10/27 00:59:01;;;;;;;406.17;281.17;;;;;;;15.61;63.88;100489.41;339553;29;1170;-79